Time;durP1;ratioP1;P1;durP2;ratioP2;P2;SDS_P1;SDS_P2;PMS_P1;PMS_P2;Temp;Humidity;BMP_temperature;BMP_pressure;BME280_temperature;BME280_humidity;BME280_pressure;Samples;Min_cycle;Max_cycle;Signal;HPM_P1;HPM_P2
2022/01/18 00:00:07;;;;;;;3.47;1.50;;;6.50;78.20;;;;;;4955700;28;20086;-92
2022/01/18 00:02:59;;;;;;;5.38;1.55;;;6.50;78.50;;;;;;4954928;29;20082;-92
2022/01/18 00:05:51;;;;;;;3.72;1.15;;;6.70;79.10;;;;;;4948956;29;20046;-92
2022/01/18 00:08:31;;;;;;;6.38;1.52;;;6.60;77.10;;;;;;4955971;29;20486;-91
2022/01/18 00:11:07;;;;;;;;;;;;;;;;;;;;;
2022/01/18 00:13:55;;;;;;;6.68;2.10;;;6.40;78.10;;;;;;4960116;29;20024;-91
2022/01/18 00:16:31;;;;;;;5.82;2.22;;;6.50;78.30;;;;;;4959242;29;20039;-91
2022/01/18 00:19:08;;;;;;;6.63;2.10;;;6.50;79.50;;;;;;4959144;29;20019;-91
2022/01/18 00:24:25;;;;;;;7.22;2.45;;;6.40;78.90;;;;;;4960381;29;20047;-91
2022/01/18 00:27:00;;;;;;;4.22;1.90;;;6.40;78.10;;;;;;4959346;29;20028;-91
2022/01/18 00:29:48;;;;;;;4.77;1.60;;;6.30;75.70;;;;;;4959238;29;20382;-91
2022/01/18 00:32:37;;;;;;;7.30;2.22;;;6.30;76.90;;;;;;4958984;29;20273;-92
2022/01/18 00:35:06;;;;;;;8.13;2.28;;;6.30;77.00;;;;;;4959044;29;20031;-91
2022/01/18 00:37:50;;;;;;;5.93;1.98;;;6.30;77.40;;;;;;4958868;28;20027;-92
2022/01/18 00:40:19;;;;;;;3.20;1.08;;;6.30;77.40;;;;;;4959138;29;20046;-91
2022/01/18 00:42:45;;;;;;;4.90;1.77;;;6.30;77.60;;;;;;4958530;28;20027;-92
2022/01/18 00:45:14;;;;;;;5.07;2.10;;;6.30;77.90;;;;;;4958939;29;20027;-92
2022/01/18 00:48:00;;;;;;;4.63;1.77;;;6.30;78.50;;;;;;4958634;28;20023;-91
2022/01/18 00:50:31;;;;;;;3.50;1.10;;;6.30;77.90;;;;;;4958912;29;20019;-91
2022/01/18 00:53:15;;;;;;;2.38;0.80;;;6.20;78.00;;;;;;4958411;29;20062;-91
2022/01/18 00:58:44;;;;;;;4.85;1.42;;;6.20;79.20;;;;;;4959867;28;20474;-92
2022/01/18 01:01:14;;;;;;;6.03;1.95;;;6.10;79.30;;;;;;4959069;29;20114;-92
2022/01/18 01:03:52;;;;;;;4.93;1.50;;;6.10;80.00;;;;;;4958424;29;20027;-92
2022/01/18 01:06:23;;;;;;;6.40;1.52;;;6.10;79.30;;;;;;4958676;29;20374;-91
2022/01/18 01:08:53;;;;;;;4.03;1.30;;;6.00;79.60;;;;;;4958671;28;20027;-92
2022/01/18 01:11:36;;;;;;;4.45;1.60;;;6.00;80.80;;;;;;4959634;28;20090;-91
2022/01/18 01:14:14;;;;;;;4.30;1.80;;;6.00;81.40;;;;;;4958496;29;20078;-92
2022/01/18 01:16:55;;;;;;;3.10;1.40;;;6.00;80.50;;;;;;4958163;29;20482;-91
2022/01/18 01:45:15;;;;;;;5.32;1.40;;;5.40;84.40;;;;;;4957826;29;20058;-91
2022/01/18 01:48:00;;;;;;;5.85;1.70;;;5.40;84.30;;;;;;4957803;29;20042;-91
2022/01/18 01:50:53;;;;;;;5.47;2.28;;;5.50;83.90;;;;;;4958758;28;20110;-91
2022/01/18 01:53:34;;;;;;;4.72;1.77;;;5.40;83.10;;;;;;4957867;29;20031;-92
2022/01/18 01:56:06;;;;;;;8.23;2.30;;;5.20;80.50;;;;;;4957282;29;20027;-91
2022/01/18 01:58:40;;;;;;;6.63;2.50;;;5.20;82.60;;;;;;4973543;28;20031;-92
2022/01/18 02:01:28;;;;;;;12.20;2.95;;;5.20;84.40;;;;;;4957469;29;20064;-92
2022/01/18 07:57:42;;;;;;;503.42;196.52;;;-0.10;99.90;;;;;;5114058;27;20378;-92
2022/01/18 08:04:02;;;;;;;446.85;155.63;;;0.10;99.90;;;;;;5090439;28;20568;-91
2022/01/18 08:06:37;;;;;;;379.60;130.77;;;0.30;99.90;;;;;;5085767;28;20024;-93
2022/01/18 08:09:03;;;;;;;267.23;92.60;;;0.50;99.90;;;;;;5111903;28;20024;-93
2022/01/18 08:42:52;;;;;;;23.70;7.82;;;1.70;94.80;;;;;;5073357;27;20394;-92
2022/01/18 08:45:18;;;;;;;22.63;8.70;;;1.80;94.60;;;;;;5072326;28;20032;-92
2022/01/18 08:47:44;;;;;;;25.10;9.52;;;1.90;94.90;;;;;;5071793;28;20393;-95
2022/01/18 08:50:22;;;;;;;27.35;8.82;;;2.20;94.00;;;;;;5073005;28;20020;-95
2022/01/18 08:53:11;;;;;;;25.35;9.15;;;2.40;93.00;;;;;;5072741;28;20033;-93
2022/01/18 08:55:37;;;;;;;21.60;8.32;;;2.60;93.30;;;;;;5071850;28;20460;-92
2022/01/18 08:58:03;;;;;;;13.30;4.85;;;2.80;92.20;;;;;;5071492;28;20116;-93
2022/01/18 11:16:04;;;;;;;8.80;2.25;;;5.50;74.90;;;;;;5134474;27;20371;-85
2022/01/18 11:18:36;;;;;;;11.05;3.05;;;6.40;72.80;;;;;;5131725;28;20032;-90
2022/01/18 11:52:59;;;;;;;5.75;1.40;;;7.20;69.40;;;;;;5031059;28;20392;-96
2022/01/18 11:56:29;;;;;;;;;;;;;;;;;;;;;
2022/01/18 20:46:50;;;;;;;;;;;;;;;;;;;;;
2022/01/18 20:57:41;;;;;;;;;;;;;;;;;;;;;
2022/01/18 21:33:06;;;;;;;;;;;;;;;;;;;;;
2022/01/18 22:00:27;;;;;;;;;;;;;;;;;;;;;
2022/01/18 22:48:47;;;;;;;;;;;;;;;;;;;;;
